sensor_id;sensor_type;location;lat;lon;timestamp;P1;durP1;ratioP1;P2;durP2;ratioP2
35324;SDS011;35135;47.510;19.036;2023-08-12T00:00:29;2.85;;;2.20;;
35324;SDS011;35135;47.510;19.036;2023-08-12T00:02:55;3.15;;;2.58;;
35324;SDS011;35135;47.510;19.036;2023-08-12T00:05:20;3.22;;;2.20;;
35324;SDS011;35135;47.510;19.036;2023-08-12T00:07:47;2.97;;;2.30;;
35324;SDS011;35135;47.510;19.036;2023-08-12T00:10:14;2.63;;;2.20;;
35324;SDS011;35135;47.510;19.036;2023-08-12T00:12:40;2.28;;;1.83;;
35324;SDS011;35135;47.510;19.036;2023-08-12T00:15:06;3.35;;;2.60;;
35324;SDS011;35135;47.510;19.036;2023-08-12T00:17:33;2.05;;;1.75;;
35324;SDS011;35135;47.510;19.036;2023-08-12T00:20:00;3.17;;;2.10;;
35324;SDS011;35135;47.510;19.036;2023-08-12T00:22:30;2.63;;;2.00;;
35324;SDS011;35135;47.510;19.036;2023-08-12T00:24:56;2.22;;;1.88;;
35324;SDS011;35135;47.510;19.036;2023-08-12T00:27:22;3.58;;;2.35;;
35324;SDS011;35135;47.510;19.036;2023-08-12T00:29:48;2.42;;;2.22;;
35324;SDS011;35135;47.510;19.036;2023-08-12T00:32:13;4.18;;;2.42;;
35324;SDS011;35135;47.510;19.036;2023-08-12T00:34:39;3.63;;;2.53;;
35324;SDS011;35135;47.510;19.036;2023-08-12T00:37:05;4.65;;;2.58;;
35324;SDS011;35135;47.510;19.036;2023-08-12T00:39:30;4.25;;;2.60;;
35324;SDS011;35135;47.510;19.036;2023-08-12T00:41:56;3.22;;;2.30;;
35324;SDS011;35135;47.510;19.036;2023-08-12T00:44:22;2.67;;;1.98;;
35324;SDS011;35135;47.510;19.036;2023-08-12T00:46:47;3.00;;;2.63;;
35324;SDS011;35135;47.510;19.036;2023-08-12T00:49:14;3.78;;;2.53;;
35324;SDS011;35135;47.510;19.036;2023-08-12T00:51:42;4.63;;;2.10;;
35324;SDS011;35135;47.510;19.036;2023-08-12T00:54:11;3.10;;;2.33;;
35324;SDS011;35135;47.510;19.036;2023-08-12T00:56:39;3.90;;;2.22;;
35324;SDS011;35135;47.510;19.036;2023-08-12T00:59:06;2.80;;;2.42;;
35324;SDS011;35135;47.510;19.036;2023-08-12T01:01:38;3.42;;;2.53;;
35324;SDS011;35135;47.510;19.036;2023-08-12T01:04:08;2.97;;;2.33;;
35324;SDS011;35135;47.510;19.036;2023-08-12T01:06:34;3.00;;;2.50;;
35324;SDS011;35135;47.510;19.036;2023-08-12T01:09:00;2.83;;;2.53;;
35324;SDS011;35135;47.510;19.036;2023-08-12T01:11:33;3.33;;;2.42;;
35324;SDS011;35135;47.510;19.036;2023-08-12T01:16:40;3.08;;;2.40;;
35324;SDS011;35135;47.510;19.036;2023-08-12T01:19:11;4.50;;;2.70;;
35324;SDS011;35135;47.510;19.036;2023-08-12T01:22:10;3.15;;;2.45;;
35324;SDS011;35135;47.510;19.036;2023-08-12T01:24:38;4.88;;;2.90;;
35324;SDS011;35135;47.510;19.036;2023-08-12T01:27:08;3.47;;;3.00;;
35324;SDS011;35135;47.510;19.036;2023-08-12T01:29:37;3.00;;;2.47;;
35324;SDS011;35135;47.510;19.036;2023-08-12T01:35:19;5.00;;;2.70;;
35324;SDS011;35135;47.510;19.036;2023-08-12T01:37:49;3.92;;;2.33;;
35324;SDS011;35135;47.510;19.036;2023-08-12T01:40:17;4.63;;;2.60;;
35324;SDS011;35135;47.510;19.036;2023-08-12T01:42:44;4.03;;;2.75;;
35324;SDS011;35135;47.510;19.036;2023-08-12T01:45:10;2.70;;;2.50;;
35324;SDS011;35135;47.510;19.036;2023-08-12T01:47:36;3.88;;;2.40;;
35324;SDS011;35135;47.510;19.036;2023-08-12T01:50:02;3.17;;;2.05;;
35324;SDS011;35135;47.510;19.036;2023-08-12T01:52:28;3.15;;;2.47;;
35324;SDS011;35135;47.510;19.036;2023-08-12T01:54:54;3.92;;;2.50;;
35324;SDS011;35135;47.510;19.036;2023-08-12T01:57:20;2.78;;;2.47;;
35324;SDS011;35135;47.510;19.036;2023-08-12T01:59:46;2.42;;;2.13;;
35324;SDS011;35135;47.510;19.036;2023-08-12T02:02:12;4.22;;;2.60;;
35324;SDS011;35135;47.510;19.036;2023-08-12T02:04:39;4.13;;;2.17;;
35324;SDS011;35135;47.510;19.036;2023-08-12T02:07:05;3.33;;;2.75;;
35324;SDS011;35135;47.510;19.036;2023-08-12T02:09:31;2.95;;;2.15;;
35324;SDS011;35135;47.510;19.036;2023-08-12T02:11:57;4.00;;;2.72;;
35324;SDS011;35135;47.510;19.036;2023-08-12T02:14:23;4.38;;;2.30;;
35324;SDS011;35135;47.510;19.036;2023-08-12T02:16:49;3.83;;;2.20;;
35324;SDS011;35135;47.510;19.036;2023-08-12T02:19:14;5.65;;;2.40;;
35324;SDS011;35135;47.510;19.036;2023-08-12T02:21:41;4.95;;;2.42;;
35324;SDS011;35135;47.510;19.036;2023-08-12T02:24:07;2.95;;;2.47;;
35324;SDS011;35135;47.510;19.036;2023-08-12T02:26:34;2.85;;;2.55;;
35324;SDS011;35135;47.510;19.036;2023-08-12T02:28:59;2.80;;;2.35;;
35324;SDS011;35135;47.510;19.036;2023-08-12T02:31:25;3.00;;;2.38;;
35324;SDS011;35135;47.510;19.036;2023-08-12T02:33:51;3.30;;;2.40;;
35324;SDS011;35135;47.510;19.036;2023-08-12T02:36:16;2.35;;;2.15;;
35324;SDS011;35135;47.510;19.036;2023-08-12T02:38:42;4.43;;;2.35;;
35324;SDS011;35135;47.510;19.036;2023-08-12T02:41:08;3.90;;;2.53;;
35324;SDS011;35135;47.510;19.036;2023-08-12T02:43:33;3.28;;;2.15;;
35324;SDS011;35135;47.510;19.036;2023-08-12T02:45:59;2.90;;;2.45;;
35324;SDS011;35135;47.510;19.036;2023-08-12T02:48:25;4.40;;;2.13;;
35324;SDS011;35135;47.510;19.036;2023-08-12T02:50:50;2.47;;;2.08;;
35324;SDS011;35135;47.510;19.036;2023-08-12T02:53:16;3.80;;;2.22;;
35324;SDS011;35135;47.510;19.036;2023-08-12T02:55:42;4.07;;;2.40;;
35324;SDS011;35135;47.510;19.036;2023-08-12T02:58:10;2.97;;;2.10;;
35324;SDS011;35135;47.510;19.036;2023-08-12T03:00:35;2.50;;;2.28;;
35324;SDS011;35135;47.510;19.036;2023-08-12T03:03:01;3.67;;;2.22;;
35324;SDS011;35135;47.510;19.036;2023-08-12T03:05:26;2.50;;;2.05;;
35324;SDS011;35135;47.510;19.036;2023-08-12T03:07:52;4.13;;;2.40;;
35324;SDS011;35135;47.510;19.036;2023-08-12T03:10:18;3.08;;;2.40;;
35324;SDS011;35135;47.510;19.036;2023-08-12T03:12:43;2.63;;;1.92;;
35324;SDS011;35135;47.510;19.036;2023-08-12T03:15:10;2.40;;;2.20;;
35324;SDS011;35135;47.510;19.036;2023-08-12T03:17:35;2.45;;;2.05;;
35324;SDS011;35135;47.510;19.036;2023-08-12T03:20:03;2.50;;;2.05;;
35324;SDS011;35135;47.510;19.036;2023-08-12T03:22:30;4.93;;;2.63;;
35324;SDS011;35135;47.510;19.036;2023-08-12T03:24:56;3.30;;;2.50;;
35324;SDS011;35135;47.510;19.036;2023-08-12T03:27:22;2.55;;;1.85;;
35324;SDS011;35135;47.510;19.036;2023-08-12T03:29:47;2.78;;;2.25;;
35324;SDS011;35135;47.510;19.036;2023-08-12T03:32:13;2.42;;;2.15;;
35324;SDS011;35135;47.510;19.036;2023-08-12T03:34:39;2.78;;;1.83;;
35324;SDS011;35135;47.510;19.036;2023-08-12T03:37:04;3.15;;;2.00;;
35324;SDS011;35135;47.510;19.036;2023-08-12T03:39:30;2.17;;;1.80;;
35324;SDS011;35135;47.510;19.036;2023-08-12T03:41:56;2.30;;;2.10;;
35324;SDS011;35135;47.510;19.036;2023-08-12T03:44:21;3.08;;;2.00;;
35324;SDS011;35135;47.510;19.036;2023-08-12T03:46:47;2.80;;;2.20;;
35324;SDS011;35135;47.510;19.036;2023-08-12T03:49:13;2.40;;;2.10;;
35324;SDS011;35135;47.510;19.036;2023-08-12T03:51:39;3.30;;;2.10;;
35324;SDS011;35135;47.510;19.036;2023-08-12T03:54:04;2.97;;;2.25;;
35324;SDS011;35135;47.510;19.036;2023-08-12T03:56:30;2.58;;;2.10;;
35324;SDS011;35135;47.510;19.036;2023-08-12T03:58:56;2.78;;;2.30;;
35324;SDS011;35135;47.510;19.036;2023-08-12T04:01:22;2.47;;;2.15;;
35324;SDS011;35135;47.510;19.036;2023-08-12T04:03:47;5.75;;;3.15;;
35324;SDS011;35135;47.510;19.036;2023-08-12T04:06:13;3.28;;;1.98;;
35324;SDS011;35135;47.510;19.036;2023-08-12T04:08:39;2.15;;;1.90;;
35324;SDS011;35135;47.510;19.036;2023-08-12T04:11:04;4.28;;;2.35;;
35324;SDS011;35135;47.510;19.036;2023-08-12T04:13:30;4.05;;;2.10;;
35324;SDS011;35135;47.510;19.036;2023-08-12T04:15:56;3.67;;;2.33;;
35324;SDS011;35135;47.510;19.036;2023-08-12T04:18:22;2.90;;;2.17;;
35324;SDS011;35135;47.510;19.036;2023-08-12T04:20:52;4.13;;;2.20;;
35324;SDS011;35135;47.510;19.036;2023-08-12T04:23:18;2.17;;;1.90;;
35324;SDS011;35135;47.510;19.036;2023-08-12T04:25:44;2.92;;;2.38;;
35324;SDS011;35135;47.510;19.036;2023-08-12T04:28:14;2.63;;;2.00;;
35324;SDS011;35135;47.510;19.036;2023-08-12T04:30:47;2.47;;;2.22;;
35324;SDS011;35135;47.510;19.036;2023-08-12T04:33:15;3.10;;;2.17;;
35324;SDS011;35135;47.510;19.036;2023-08-12T04:35:41;3.25;;;2.20;;
35324;SDS011;35135;47.510;19.036;2023-08-12T04:38:07;3.78;;;2.17;;
35324;SDS011;35135;47.510;19.036;2023-08-12T04:40:33;3.03;;;2.15;;
35324;SDS011;35135;47.510;19.036;2023-08-12T04:42:59;4.53;;;2.60;;
35324;SDS011;35135;47.510;19.036;2023-08-12T04:45:25;2.83;;;2.28;;
35324;SDS011;35135;47.510;19.036;2023-08-12T04:47:51;2.95;;;2.17;;
35324;SDS011;35135;47.510;19.036;2023-08-12T04:50:17;2.60;;;2.40;;
35324;SDS011;35135;47.510;19.036;2023-08-12T04:52:43;3.60;;;2.47;;
35324;SDS011;35135;47.510;19.036;2023-08-12T04:55:09;3.90;;;2.38;;
35324;SDS011;35135;47.510;19.036;2023-08-12T04:57:38;2.80;;;2.30;;
35324;SDS011;35135;47.510;19.036;2023-08-12T05:00:04;2.95;;;2.60;;
35324;SDS011;35135;47.510;19.036;2023-08-12T05:02:33;2.90;;;2.60;;
35324;SDS011;35135;47.510;19.036;2023-08-12T05:04:59;4.97;;;2.65;;
35324;SDS011;35135;47.510;19.036;2023-08-12T05:07:26;2.97;;;2.50;;
35324;SDS011;35135;47.510;19.036;2023-08-12T05:09:51;4.55;;;2.45;;
35324;SDS011;35135;47.510;19.036;2023-08-12T05:12:17;4.82;;;2.50;;
35324;SDS011;35135;47.510;19.036;2023-08-12T05:14:43;2.85;;;2.40;;
35324;SDS011;35135;47.510;19.036;2023-08-12T05:17:08;3.53;;;2.78;;
35324;SDS011;35135;47.510;19.036;2023-08-12T05:19:34;3.55;;;2.72;;
35324;SDS011;35135;47.510;19.036;2023-08-12T05:22:00;3.50;;;2.72;;
35324;SDS011;35135;47.510;19.036;2023-08-12T05:24:25;5.47;;;2.50;;
35324;SDS011;35135;47.510;19.036;2023-08-12T05:26:51;4.93;;;2.95;;
35324;SDS011;35135;47.510;19.036;2023-08-12T05:29:17;3.03;;;2.53;;
35324;SDS011;35135;47.510;19.036;2023-08-12T05:31:42;4.45;;;2.30;;
35324;SDS011;35135;47.510;19.036;2023-08-12T05:34:08;3.50;;;2.17;;
35324;SDS011;35135;47.510;19.036;2023-08-12T05:36:35;3.60;;;2.90;;
35324;SDS011;35135;47.510;19.036;2023-08-12T05:39:01;3.22;;;2.55;;
35324;SDS011;35135;47.510;19.036;2023-08-12T05:41:28;4.18;;;2.60;;
35324;SDS011;35135;47.510;19.036;2023-08-12T05:43:54;3.88;;;2.80;;
35324;SDS011;35135;47.510;19.036;2023-08-12T05:46:19;4.72;;;2.47;;
35324;SDS011;35135;47.510;19.036;2023-08-12T05:48:45;4.13;;;2.70;;
35324;SDS011;35135;47.510;19.036;2023-08-12T05:51:11;4.57;;;2.90;;
35324;SDS011;35135;47.510;19.036;2023-08-12T05:53:37;2.97;;;2.40;;
35324;SDS011;35135;47.510;19.036;2023-08-12T05:56:03;4.15;;;2.95;;
35324;SDS011;35135;47.510;19.036;2023-08-12T05:58:28;4.82;;;2.60;;
35324;SDS011;35135;47.510;19.036;2023-08-12T06:00:54;2.78;;;2.50;;
35324;SDS011;35135;47.510;19.036;2023-08-12T06:03:20;3.03;;;2.55;;
35324;SDS011;35135;47.510;19.036;2023-08-12T06:05:46;4.30;;;2.85;;
35324;SDS011;35135;47.510;19.036;2023-08-12T06:08:12;2.75;;;2.10;;
35324;SDS011;35135;47.510;19.036;2023-08-12T06:10:38;4.63;;;2.60;;
35324;SDS011;35135;47.510;19.036;2023-08-12T06:13:04;5.43;;;2.80;;
35324;SDS011;35135;47.510;19.036;2023-08-12T06:15:30;3.13;;;2.70;;
35324;SDS011;35135;47.510;19.036;2023-08-12T06:17:57;4.75;;;2.40;;
35324;SDS011;35135;47.510;19.036;2023-08-12T06:20:23;3.35;;;2.67;;
35324;SDS011;35135;47.510;19.036;2023-08-12T06:22:49;4.80;;;2.60;;
35324;SDS011;35135;47.510;19.036;2023-08-12T06:25:16;4.30;;;2.90;;
35324;SDS011;35135;47.510;19.036;2023-08-12T06:27:42;4.70;;;2.40;;
35324;SDS011;35135;47.510;19.036;2023-08-12T06:30:08;5.65;;;2.47;;
35324;SDS011;35135;47.510;19.036;2023-08-12T06:32:35;4.10;;;2.33;;
35324;SDS011;35135;47.510;19.036;2023-08-12T06:35:01;5.40;;;2.88;;
35324;SDS011;35135;47.510;19.036;2023-08-12T06:37:27;4.65;;;2.60;;
35324;SDS011;35135;47.510;19.036;2023-08-12T06:39:52;3.22;;;2.50;;
35324;SDS011;35135;47.510;19.036;2023-08-12T06:42:18;5.32;;;2.80;;
35324;SDS011;35135;47.510;19.036;2023-08-12T06:44:44;4.45;;;2.70;;
35324;SDS011;35135;47.510;19.036;2023-08-12T06:47:10;4.57;;;2.55;;
35324;SDS011;35135;47.510;19.036;2023-08-12T06:49:36;4.07;;;2.47;;
35324;SDS011;35135;47.510;19.036;2023-08-12T06:52:01;3.55;;;2.25;;
35324;SDS011;35135;47.510;19.036;2023-08-12T06:54:27;5.63;;;2.90;;
35324;SDS011;35135;47.510;19.036;2023-08-12T06:56:53;3.50;;;2.10;;
35324;SDS011;35135;47.510;19.036;2023-08-12T06:59:18;3.50;;;2.45;;
35324;SDS011;35135;47.510;19.036;2023-08-12T07:01:44;3.95;;;2.63;;
35324;SDS011;35135;47.510;19.036;2023-08-12T07:04:10;5.13;;;2.60;;
35324;SDS011;35135;47.510;19.036;2023-08-12T07:06:36;3.35;;;2.08;;
35324;SDS011;35135;47.510;19.036;2023-08-12T07:09:01;5.10;;;2.50;;
35324;SDS011;35135;47.510;19.036;2023-08-12T07:11:28;2.70;;;2.10;;
35324;SDS011;35135;47.510;19.036;2023-08-12T07:13:53;3.92;;;2.40;;
35324;SDS011;35135;47.510;19.036;2023-08-12T07:16:19;3.45;;;2.22;;
35324;SDS011;35135;47.510;19.036;2023-08-12T07:18:45;3.72;;;2.50;;
35324;SDS011;35135;47.510;19.036;2023-08-12T07:21:10;5.55;;;2.40;;
35324;SDS011;35135;47.510;19.036;2023-08-12T07:23:36;4.55;;;2.40;;
35324;SDS011;35135;47.510;19.036;2023-08-12T07:26:02;2.97;;;2.17;;
35324;SDS011;35135;47.510;19.036;2023-08-12T07:28:27;4.32;;;2.55;;
35324;SDS011;35135;47.510;19.036;2023-08-12T07:30:53;4.28;;;2.25;;
35324;SDS011;35135;47.510;19.036;2023-08-12T07:33:19;3.55;;;2.28;;
35324;SDS011;35135;47.510;19.036;2023-08-12T07:35:46;3.22;;;2.30;;
35324;SDS011;35135;47.510;19.036;2023-08-12T07:38:12;3.95;;;2.25;;
35324;SDS011;35135;47.510;19.036;2023-08-12T07:40:37;6.43;;;2.20;;
35324;SDS011;35135;47.510;19.036;2023-08-12T07:43:03;9.05;;;3.08;;
35324;SDS011;35135;47.510;19.036;2023-08-12T07:45:29;3.95;;;2.30;;
35324;SDS011;35135;47.510;19.036;2023-08-12T07:47:54;4.93;;;2.72;;
35324;SDS011;35135;47.510;19.036;2023-08-12T07:50:20;5.57;;;2.80;;
35324;SDS011;35135;47.510;19.036;2023-08-12T07:52:46;8.98;;;2.67;;
35324;SDS011;35135;47.510;19.036;2023-08-12T07:55:11;7.15;;;2.72;;
35324;SDS011;35135;47.510;19.036;2023-08-12T07:57:37;26.65;;;3.67;;
35324;SDS011;35135;47.510;19.036;2023-08-12T08:00:03;13.50;;;3.10;;
35324;SDS011;35135;47.510;19.036;2023-08-12T08:02:30;6.32;;;3.05;;
35324;SDS011;35135;47.510;19.036;2023-08-12T08:04:56;6.18;;;3.08;;
35324;SDS011;35135;47.510;19.036;2023-08-12T08:07:21;4.72;;;2.45;;
35324;SDS011;35135;47.510;19.036;2023-08-12T08:09:47;8.95;;;2.63;;
35324;SDS011;35135;47.510;19.036;2023-08-12T08:12:13;3.95;;;2.17;;
35324;SDS011;35135;47.510;19.036;2023-08-12T08:14:38;9.82;;;3.05;;
35324;SDS011;35135;47.510;19.036;2023-08-12T08:17:04;8.45;;;3.50;;
35324;SDS011;35135;47.510;19.036;2023-08-12T08:19:30;5.50;;;2.50;;
35324;SDS011;35135;47.510;19.036;2023-08-12T08:21:57;9.65;;;3.13;;
35324;SDS011;35135;47.510;19.036;2023-08-12T08:24:23;10.52;;;3.60;;
35324;SDS011;35135;47.510;19.036;2023-08-12T08:26:49;5.63;;;2.85;;
35324;SDS011;35135;47.510;19.036;2023-08-12T08:29:15;6.00;;;2.65;;
35324;SDS011;35135;47.510;19.036;2023-08-12T08:31:40;9.00;;;3.25;;
35324;SDS011;35135;47.510;19.036;2023-08-12T08:34:06;8.30;;;2.70;;
35324;SDS011;35135;47.510;19.036;2023-08-12T08:36:32;8.65;;;2.83;;
35324;SDS011;35135;47.510;19.036;2023-08-12T08:38:57;10.80;;;2.75;;
35324;SDS011;35135;47.510;19.036;2023-08-12T08:41:23;9.00;;;2.40;;
35324;SDS011;35135;47.510;19.036;2023-08-12T08:43:49;6.03;;;2.38;;
35324;SDS011;35135;47.510;19.036;2023-08-12T08:46:17;9.57;;;3.05;;
35324;SDS011;35135;47.510;19.036;2023-08-12T08:48:43;7.78;;;2.40;;
35324;SDS011;35135;47.510;19.036;2023-08-12T08:51:09;4.90;;;2.83;;
35324;SDS011;35135;47.510;19.036;2023-08-12T08:53:39;5.38;;;2.17;;
35324;SDS011;35135;47.510;19.036;2023-08-12T08:56:06;5.25;;;2.13;;
35324;SDS011;35135;47.510;19.036;2023-08-12T08:58:33;6.38;;;2.65;;
35324;SDS011;35135;47.510;19.036;2023-08-12T09:00:59;9.60;;;2.97;;
35324;SDS011;35135;47.510;19.036;2023-08-12T09:03:25;6.47;;;2.60;;
35324;SDS011;35135;47.510;19.036;2023-08-12T09:05:52;9.70;;;2.47;;
35324;SDS011;35135;47.510;19.036;2023-08-12T09:08:20;6.40;;;2.80;;
35324;SDS011;35135;47.510;19.036;2023-08-12T09:10:46;5.05;;;2.42;;
35324;SDS011;35135;47.510;19.036;2023-08-12T09:13:13;3.50;;;2.42;;
35324;SDS011;35135;47.510;19.036;2023-08-12T09:15:40;2.88;;;2.30;;
35324;SDS011;35135;47.510;19.036;2023-08-12T09:18:05;2.70;;;2.13;;
35324;SDS011;35135;47.510;19.036;2023-08-12T09:20:35;2.83;;;2.20;;
35324;SDS011;35135;47.510;19.036;2023-08-12T09:23:01;3.00;;;2.15;;
35324;SDS011;35135;47.510;19.036;2023-08-12T09:25:27;7.28;;;2.90;;
35324;SDS011;35135;47.510;19.036;2023-08-12T09:27:54;7.88;;;3.10;;
35324;SDS011;35135;47.510;19.036;2023-08-12T09:30:23;5.60;;;3.33;;
35324;SDS011;35135;47.510;19.036;2023-08-12T09:33:01;10.80;;;6.68;;
35324;SDS011;35135;47.510;19.036;2023-08-12T09:35:46;15.30;;;7.45;;
35324;SDS011;35135;47.510;19.036;2023-08-12T09:38:14;26.27;;;14.07;;
35324;SDS011;35135;47.510;19.036;2023-08-12T09:40:40;22.65;;;12.07;;
35324;SDS011;35135;47.510;19.036;2023-08-12T09:43:08;29.48;;;17.05;;
35324;SDS011;35135;47.510;19.036;2023-08-12T09:45:34;20.80;;;11.88;;
35324;SDS011;35135;47.510;19.036;2023-08-12T09:48:00;15.23;;;9.82;;
35324;SDS011;35135;47.510;19.036;2023-08-12T09:50:27;16.30;;;9.63;;
35324;SDS011;35135;47.510;19.036;2023-08-12T09:52:53;14.13;;;8.05;;
35324;SDS011;35135;47.510;19.036;2023-08-12T09:55:21;11.52;;;7.45;;
35324;SDS011;35135;47.510;19.036;2023-08-12T09:57:50;14.32;;;9.70;;
35324;SDS011;35135;47.510;19.036;2023-08-12T10:00:18;15.93;;;9.55;;
35324;SDS011;35135;47.510;19.036;2023-08-12T10:02:46;12.43;;;8.55;;
35324;SDS011;35135;47.510;19.036;2023-08-12T10:05:13;8.18;;;4.57;;
35324;SDS011;35135;47.510;19.036;2023-08-12T10:07:47;10.05;;;5.97;;
35324;SDS011;35135;47.510;19.036;2023-08-12T10:10:13;8.48;;;5.25;;
35324;SDS011;35135;47.510;19.036;2023-08-12T10:12:40;8.70;;;5.78;;
35324;SDS011;35135;47.510;19.036;2023-08-12T10:15:06;6.20;;;3.95;;
35324;SDS011;35135;47.510;19.036;2023-08-12T10:17:34;7.85;;;4.63;;
35324;SDS011;35135;47.510;19.036;2023-08-12T10:20:01;9.57;;;6.60;;
35324;SDS011;35135;47.510;19.036;2023-08-12T10:22:29;10.82;;;6.18;;
35324;SDS011;35135;47.510;19.036;2023-08-12T10:24:59;11.48;;;5.88;;
35324;SDS011;35135;47.510;19.036;2023-08-12T10:27:27;12.35;;;5.07;;
35324;SDS011;35135;47.510;19.036;2023-08-12T10:29:55;9.00;;;5.35;;
35324;SDS011;35135;47.510;19.036;2023-08-12T10:32:22;11.57;;;5.05;;
35324;SDS011;35135;47.510;19.036;2023-08-12T10:34:55;8.73;;;4.55;;
35324;SDS011;35135;47.510;19.036;2023-08-12T10:37:22;6.53;;;3.70;;
35324;SDS011;35135;47.510;19.036;2023-08-12T10:39:52;10.15;;;4.72;;
35324;SDS011;35135;47.510;19.036;2023-08-12T10:45:16;6.72;;;4.05;;
35324;SDS011;35135;47.510;19.036;2023-08-12T10:47:47;9.48;;;4.53;;
35324;SDS011;35135;47.510;19.036;2023-08-12T10:50:21;9.90;;;4.32;;
35324;SDS011;35135;47.510;19.036;2023-08-12T10:52:52;6.53;;;3.42;;
35324;SDS011;35135;47.510;19.036;2023-08-12T10:55:20;5.00;;;3.30;;
35324;SDS011;35135;47.510;19.036;2023-08-12T10:57:47;5.22;;;3.25;;
35324;SDS011;35135;47.510;19.036;2023-08-12T11:00:14;5.13;;;3.00;;
35324;SDS011;35135;47.510;19.036;2023-08-12T11:02:51;6.45;;;3.30;;
35324;SDS011;35135;47.510;19.036;2023-08-12T11:05:18;5.03;;;3.22;;
35324;SDS011;35135;47.510;19.036;2023-08-12T11:07:45;4.32;;;3.05;;
35324;SDS011;35135;47.510;19.036;2023-08-12T11:15:36;3.35;;;2.58;;
35324;SDS011;35135;47.510;19.036;2023-08-12T11:18:06;6.18;;;3.00;;
35324;SDS011;35135;47.510;19.036;2023-08-12T11:20:33;4.65;;;2.95;;
35324;SDS011;35135;47.510;19.036;2023-08-12T11:23:00;5.20;;;2.70;;
35324;SDS011;35135;47.510;19.036;2023-08-12T11:25:28;4.80;;;3.00;;
35324;SDS011;35135;47.510;19.036;2023-08-12T11:27:55;4.22;;;3.30;;
35324;SDS011;35135;47.510;19.036;2023-08-12T11:30:21;3.13;;;2.28;;
35324;SDS011;35135;47.510;19.036;2023-08-12T11:32:49;4.93;;;2.92;;
35324;SDS011;35135;47.510;19.036;2023-08-12T11:35:16;7.38;;;2.88;;
35324;SDS011;35135;47.510;19.036;2023-08-12T11:37:47;4.47;;;2.72;;
35324;SDS011;35135;47.510;19.036;2023-08-12T11:40:14;5.10;;;2.88;;
35324;SDS011;35135;47.510;19.036;2023-08-12T11:42:45;7.18;;;2.50;;
35324;SDS011;35135;47.510;19.036;2023-08-12T11:45:13;5.68;;;2.50;;
35324;SDS011;35135;47.510;19.036;2023-08-12T11:47:40;6.20;;;2.75;;
35324;SDS011;35135;47.510;19.036;2023-08-12T11:50:07;4.05;;;2.88;;
35324;SDS011;35135;47.510;19.036;2023-08-12T11:52:38;7.97;;;3.15;;
35324;SDS011;35135;47.510;19.036;2023-08-12T11:55:05;7.60;;;2.85;;
35324;SDS011;35135;47.510;19.036;2023-08-12T11:57:32;8.75;;;2.80;;
35324;SDS011;35135;47.510;19.036;2023-08-12T12:00:03;14.30;;;3.20;;
35324;SDS011;35135;47.510;19.036;2023-08-12T12:02:39;13.55;;;3.90;;
35324;SDS011;35135;47.510;19.036;2023-08-12T12:05:08;7.55;;;2.70;;
35324;SDS011;35135;47.510;19.036;2023-08-12T12:07:35;8.88;;;2.78;;
35324;SDS011;35135;47.510;19.036;2023-08-12T12:10:02;6.55;;;3.05;;
35324;SDS011;35135;47.510;19.036;2023-08-12T12:12:28;8.45;;;3.03;;
35324;SDS011;35135;47.510;19.036;2023-08-12T12:14:53;5.32;;;2.42;;
35324;SDS011;35135;47.510;19.036;2023-08-12T12:17:23;4.07;;;2.45;;
35324;SDS011;35135;47.510;19.036;2023-08-12T12:19:53;6.13;;;2.33;;
35324;SDS011;35135;47.510;19.036;2023-08-12T12:22:25;6.28;;;2.72;;
35324;SDS011;35135;47.510;19.036;2023-08-12T12:24:52;5.38;;;2.80;;
35324;SDS011;35135;47.510;19.036;2023-08-12T12:27:18;7.43;;;2.63;;
35324;SDS011;35135;47.510;19.036;2023-08-12T12:29:44;9.38;;;3.35;;
35324;SDS011;35135;47.510;19.036;2023-08-12T12:32:11;5.43;;;2.70;;
35324;SDS011;35135;47.510;19.036;2023-08-12T12:34:37;4.95;;;2.65;;
35324;SDS011;35135;47.510;19.036;2023-08-12T12:37:03;5.18;;;2.70;;
35324;SDS011;35135;47.510;19.036;2023-08-12T12:39:28;4.90;;;2.88;;
35324;SDS011;35135;47.510;19.036;2023-08-12T12:41:54;6.57;;;2.40;;
35324;SDS011;35135;47.510;19.036;2023-08-12T12:44:20;5.85;;;2.70;;
35324;SDS011;35135;47.510;19.036;2023-08-12T12:46:45;3.80;;;2.35;;
35324;SDS011;35135;47.510;19.036;2023-08-12T12:49:11;4.78;;;2.60;;
35324;SDS011;35135;47.510;19.036;2023-08-12T12:51:37;4.13;;;2.53;;
35324;SDS011;35135;47.510;19.036;2023-08-12T12:54:02;5.82;;;2.63;;
35324;SDS011;35135;47.510;19.036;2023-08-12T12:56:28;6.35;;;2.45;;
35324;SDS011;35135;47.510;19.036;2023-08-12T12:58:54;4.35;;;2.33;;
35324;SDS011;35135;47.510;19.036;2023-08-12T13:01:20;4.25;;;2.28;;
35324;SDS011;35135;47.510;19.036;2023-08-12T13:03:45;7.78;;;2.42;;
35324;SDS011;35135;47.510;19.036;2023-08-12T13:06:11;4.13;;;2.15;;
35324;SDS011;35135;47.510;19.036;2023-08-12T13:08:37;5.18;;;2.30;;
35324;SDS011;35135;47.510;19.036;2023-08-12T13:11:02;2.97;;;2.40;;
35324;SDS011;35135;47.510;19.036;2023-08-12T13:13:28;4.22;;;2.13;;
35324;SDS011;35135;47.510;19.036;2023-08-12T13:15:54;3.33;;;2.40;;
35324;SDS011;35135;47.510;19.036;2023-08-12T13:18:19;3.67;;;2.53;;
35324;SDS011;35135;47.510;19.036;2023-08-12T13:20:45;3.17;;;2.30;;
35324;SDS011;35135;47.510;19.036;2023-08-12T13:23:11;3.00;;;2.70;;
35324;SDS011;35135;47.510;19.036;2023-08-12T13:25:37;3.55;;;2.28;;
35324;SDS011;35135;47.510;19.036;2023-08-12T13:28:03;2.85;;;2.15;;
35324;SDS011;35135;47.510;19.036;2023-08-12T13:30:29;2.85;;;2.10;;
35324;SDS011;35135;47.510;19.036;2023-08-12T13:32:55;2.08;;;1.88;;
35324;SDS011;35135;47.510;19.036;2023-08-12T13:35:21;2.30;;;2.10;;
35324;SDS011;35135;47.510;19.036;2023-08-12T13:37:48;2.95;;;2.30;;
35324;SDS011;35135;47.510;19.036;2023-08-12T13:40:15;3.97;;;2.58;;
35324;SDS011;35135;47.510;19.036;2023-08-12T13:42:43;4.68;;;2.53;;
35324;SDS011;35135;47.510;19.036;2023-08-12T13:45:11;3.10;;;2.00;;
35324;SDS011;35135;47.510;19.036;2023-08-12T13:47:37;2.78;;;2.13;;
35324;SDS011;35135;47.510;19.036;2023-08-12T13:50:02;3.30;;;2.35;;
35324;SDS011;35135;47.510;19.036;2023-08-12T13:52:28;3.33;;;2.35;;
35324;SDS011;35135;47.510;19.036;2023-08-12T13:54:54;3.03;;;1.90;;
35324;SDS011;35135;47.510;19.036;2023-08-12T13:57:19;2.80;;;2.60;;
35324;SDS011;35135;47.510;19.036;2023-08-12T13:59:45;3.03;;;2.30;;
35324;SDS011;35135;47.510;19.036;2023-08-12T14:02:12;2.25;;;1.70;;
35324;SDS011;35135;47.510;19.036;2023-08-12T14:04:38;2.88;;;2.20;;
35324;SDS011;35135;47.510;19.036;2023-08-12T14:07:04;3.30;;;2.28;;
35324;SDS011;35135;47.510;19.036;2023-08-12T14:09:30;2.88;;;1.95;;
35324;SDS011;35135;47.510;19.036;2023-08-12T14:11:56;3.08;;;2.20;;
35324;SDS011;35135;47.510;19.036;2023-08-12T14:14:22;3.53;;;2.08;;
35324;SDS011;35135;47.510;19.036;2023-08-12T14:16:48;3.03;;;2.35;;
35324;SDS011;35135;47.510;19.036;2023-08-12T14:19:13;3.03;;;2.17;;
35324;SDS011;35135;47.510;19.036;2023-08-12T14:21:42;2.85;;;2.15;;
35324;SDS011;35135;47.510;19.036;2023-08-12T14:24:08;3.08;;;2.35;;
35324;SDS011;35135;47.510;19.036;2023-08-12T14:26:34;2.80;;;2.15;;
35324;SDS011;35135;47.510;19.036;2023-08-12T14:29:00;2.70;;;2.40;;
35324;SDS011;35135;47.510;19.036;2023-08-12T14:31:25;3.63;;;2.30;;
35324;SDS011;35135;47.510;19.036;2023-08-12T14:33:51;2.40;;;2.20;;
35324;SDS011;35135;47.510;19.036;2023-08-12T14:36:17;2.30;;;2.10;;
35324;SDS011;35135;47.510;19.036;2023-08-12T14:38:43;2.35;;;2.15;;
35324;SDS011;35135;47.510;19.036;2023-08-12T14:41:08;2.78;;;2.13;;
35324;SDS011;35135;47.510;19.036;2023-08-12T14:43:34;2.80;;;1.95;;